Kalaheo, HI

11:56 AM HST on October 01, 2016 (GMT -1000)
Lawai | | Change Station

Elev 512 ft 21.92 °N, 159.51 °W | Updated 24 seconds ago

Overcast
Overcast
76.8 °F
Feels Like 78 °F
N
8.1
Wind Variable Wind from North
Gusts 8.1 mph

Today
High -- | Low -- °F
--% Chance of Precip.
Yesterday
High -- | Low -- °F
Precip. -- in
Pressure 30.07 in
Visibility 10.0 miles
Clouds Mostly Cloudy 4300 ft
Overcast 5000 ft
Heat Index 78 °F
Dew Point 71 °F
Humidity 83%
Rainfall in
Snow Depth Not available.
6:29 AM 6:25 PM
New Moon, 1% visible
METAR PHLI 012153Z 05013KT 10SM BKN043 OVC050 28/21 A3008 RMK AO2 SLP182 T02780211
Pressure 30.07 in
Visibility 10.0 miles
Clouds Mostly Cloudy 4300 ft
Overcast 5000 ft
Heat Index 78 °F
Dew Point 71 °F
Humidity 83%
Rainfall in
Snow Depth Not available.
6:29 AM 6:25 PM
New Moon, 1% visible
METAR PHLI 012153Z 05013KT 10SM BKN043 OVC050 28/21 A3008 RMK AO2 SLP182 T02780211

10-Day Weather Forecast

Almanac

Astronomy

Oct. 01, 2016 Rise Set
Actual Time
Civil Twilight
Nautical Twilight
Astronomical Twilight
Moon
Length of Visible Light
Length of Day
Tomorrow will be .
, % of the Moon is Illuminated

Today's Extremes

State Highs State Lows

Community

WunderPhotos

Upload Photos

1,943,027 photos uploaded!

WunderBlog® & News

Nearby

Air Quality

  Air Quality AQ Index Pollutant
Not available.

Snow Depth

Station Depth Elevation

Earthquake Activity

City Distance Mag. Time & Date
Minimum magnitude displayed is 2.5.

Coastal Water Temperatures

Place Temperature

Stations

Nearby Weather Stations

Station Location Temp. Windchill Dew Point Humidity Wind Precip. Elev Updated Type
                   

Watches & Warnings

There are currently no watches in effect.